Cacak, Serbia
Current Conditions -  °F | °C
As of 12:00 PM on Friday 24 Oct 2014 (Local Time) from LYKV Reporting Station
Overcast Overcast  
Wind Chill:   Ceiling: 700
Heat Index:   Visibility: 4mi
Dew Point:   Wind: 1mph
Humidity: 100%   Direction: NA
Pressure: 29.97"   Gusts: NA
Location:  43.9°N, 20.33°E
Report Text: LYKV 241000Z VRB01KT 6000 BKN007 OVC027 05/05 Q1015 NOSIG
Loading
Personal Weather Stations






























Interactive Weather Map
Tropical Storm Tracking
New forecast layout! Learn more

10-Day Weather Forecast

Advertisements
Track Severe Weather on mobile